createdAt,value
2023-07-11T00:01:37.664Z,101560.22
2023-07-11T00:04:06.426Z,101552.28
2023-07-11T00:06:34.921Z,101548.84
2023-07-11T00:09:04.783Z,101548.38
2023-07-11T00:11:33.165Z,101543.31
2023-07-11T00:14:01.751Z,101536.00
2023-07-11T00:16:30.284Z,101533.03
2023-07-11T00:18:58.629Z,101533.41
2023-07-11T00:21:26.975Z,101529.09
2023-07-11T00:24:04.742Z,101429.28
2023-07-11T00:26:36.329Z,101526.53
2023-07-11T00:29:17.125Z,101421.56
2023-07-11T00:31:45.461Z,101513.88
2023-07-11T00:34:13.936Z,101516.50
2023-07-11T00:36:42.233Z,101514.38
2023-07-11T00:39:13.652Z,101514.63
2023-07-11T00:41:43.706Z,101520.19
2023-07-11T00:44:15.703Z,101513.16
2023-07-11T00:46:45.456Z,101458.56
2023-07-11T00:49:18.750Z,101503.53
2023-07-11T00:51:53.543Z,101498.91
2023-07-11T00:54:32.945Z,101497.81
2023-07-11T00:57:06.737Z,101475.03
2023-07-11T00:59:35.597Z,101489.13
2023-07-11T01:02:09.182Z,101483.88
2023-07-11T01:04:39.422Z,101484.63
2023-07-11T01:07:11.730Z,101478.13
2023-07-11T01:09:40.121Z,101469.81
2023-07-11T01:12:14.064Z,101470.94
2023-07-11T01:14:44.339Z,101475.47
2023-07-11T01:17:31.769Z,101462.19
2023-07-11T01:20:03.099Z,101460.38
2023-07-11T01:22:34.927Z,101459.19
2023-07-11T01:25:08.412Z,101458.00
2023-07-11T01:27:37.113Z,101442.91
2023-07-11T01:30:08.804Z,101424.19
2023-07-11T01:32:38.993Z,101431.28
2023-07-11T01:35:08.323Z,101433.16
2023-07-11T01:37:38.749Z,101427.06
2023-07-11T01:40:10.469Z,101423.47
2023-07-11T01:42:39.751Z,101418.38
2023-07-11T01:45:11.449Z,101393.63
2023-07-11T01:47:40.478Z,101414.66
2023-07-11T01:50:10.129Z,101403.38
2023-07-11T01:52:39.908Z,101405.16
2023-07-11T01:55:11.451Z,101392.84
2023-07-11T01:57:39.869Z,101393.44
2023-07-11T02:00:11.050Z,101390.69
2023-07-11T02:02:39.201Z,101389.69
2023-07-11T02:05:08.882Z,101376.03
2023-07-11T02:07:39.399Z,101377.47
2023-07-11T02:10:09.805Z,101368.72
2023-07-11T02:12:38.192Z,101371.31
2023-07-11T02:15:07.631Z,101372.13
2023-07-11T02:17:37.033Z,101359.25
2023-07-11T02:20:07.351Z,101365.38
2023-07-11T02:22:35.680Z,101362.25
2023-07-11T02:25:06.077Z,101348.22
2023-07-11T02:27:34.458Z,101344.09
2023-07-11T02:30:02.797Z,101348.75
2023-07-11T02:32:31.185Z,101339.28
2023-07-11T02:35:00.052Z,101345.00
2023-07-11T02:37:28.382Z,101333.56
2023-07-11T02:39:56.714Z,101334.25
2023-07-11T02:42:26.467Z,101327.22
2023-07-11T02:44:54.780Z,101324.72
2023-07-11T02:47:23.172Z,101325.50
2023-07-11T02:49:51.485Z,101327.16
2023-07-11T02:52:19.793Z,101320.19
2023-07-11T02:54:48.112Z,101311.78
2023-07-11T02:57:16.549Z,101314.22
2023-07-11T02:59:47.550Z,101305.16
2023-07-11T03:02:15.875Z,101309.03
2023-07-11T03:04:44.162Z,101307.16
2023-07-11T03:07:12.499Z,101305.50
2023-07-11T03:09:40.854Z,101304.34
2023-07-11T03:12:10.591Z,101306.41
2023-07-11T03:14:39.270Z,101303.66
2023-07-11T03:17:09.011Z,101298.03
2023-07-11T03:19:38.541Z,101298.41
2023-07-11T03:22:06.968Z,101288.50
2023-07-11T03:24:35.405Z,101290.56
2023-07-11T03:27:03.781Z,101288.16
2023-07-11T03:29:32.061Z,101289.13
2023-07-11T03:32:00.390Z,101281.88
2023-07-11T03:34:30.151Z,101275.56
2023-07-11T03:36:58.544Z,101272.75
2023-07-11T03:39:26.826Z,101270.38
2023-07-11T03:41:55.216Z,101260.75
2023-07-11T03:44:23.533Z,101264.28
2023-07-11T03:46:51.896Z,101262.00
2023-07-11T03:49:20.227Z,101258.38
2023-07-11T03:51:49.924Z,101259.84
2023-07-11T03:54:18.592Z,101264.00
2023-07-11T03:56:46.954Z,101259.44
2023-07-11T03:59:15.264Z,101257.78
2023-07-11T04:01:43.549Z,101251.63
2023-07-11T04:04:12.040Z,101253.50
2023-07-11T04:06:40.466Z,101246.41
2023-07-11T04:09:10.227Z,101252.72
2023-07-11T04:11:38.557Z,101237.09
2023-07-11T04:14:12.366Z,101126.59
2023-07-11T04:16:40.858Z,101240.34
2023-07-11T04:19:09.150Z,101240.22
2023-07-11T04:21:37.669Z,101234.69
2023-07-11T04:24:06.905Z,101231.19
2023-07-11T04:26:36.575Z,101235.22
2023-07-11T04:29:04.920Z,101225.53
2023-07-11T04:31:33.303Z,101227.31
2023-07-11T04:34:01.757Z,101227.75
2023-07-11T04:36:30.133Z,101219.94
2023-07-11T04:38:58.550Z,101219.59
2023-07-11T04:41:26.902Z,101218.59
2023-07-11T04:43:56.619Z,101233.19
2023-07-11T04:46:25.186Z,101220.50
2023-07-11T04:48:53.658Z,101216.06
2023-07-11T04:51:22.063Z,101209.88
2023-07-11T04:53:50.390Z,101206.44
2023-07-11T04:56:18.732Z,101204.00
2023-07-11T04:58:47.094Z,101196.38
2023-07-11T05:01:22.256Z,101191.47
2023-07-11T05:03:51.575Z,101171.94
2023-07-11T05:06:19.897Z,101200.84
2023-07-11T05:08:48.239Z,101180.44
2023-07-11T05:11:18.718Z,101186.94
2023-07-11T05:13:49.667Z,101179.06
2023-07-11T05:16:22.603Z,101179.81
2023-07-11T05:18:51.826Z,101184.31
2023-07-11T05:21:21.807Z,101148.88
2023-07-11T05:23:50.763Z,101180.09
2023-07-11T05:26:20.823Z,101153.25
2023-07-11T05:28:49.683Z,101168.50
2023-07-11T05:31:20.543Z,101164.59
2023-07-11T05:33:49.102Z,101155.34
2023-07-11T05:36:27.151Z,101174.25
2023-07-11T05:38:56.759Z,101164.91
2023-07-11T05:41:25.433Z,101158.09
2023-07-11T05:43:53.777Z,101163.59
2023-07-11T05:46:24.210Z,101161.91
2023-07-11T05:48:53.289Z,101152.72
2023-07-11T05:51:22.675Z,101055.59
2023-07-11T05:53:51.030Z,101148.84
2023-07-11T05:56:20.831Z,101158.78
2023-07-11T05:58:51.646Z,101154.22
2023-07-11T06:01:24.458Z,101150.81
2023-07-11T06:04:05.586Z,101152.75
2023-07-11T06:06:43.111Z,101145.88
2023-07-11T06:09:15.149Z,101123.69
2023-07-11T06:11:44.438Z,101148.94
2023-07-11T06:14:13.235Z,101141.91
2023-07-11T06:16:44.795Z,101137.91
2023-07-11T06:19:14.218Z,101132.53
2023-07-11T06:21:43.206Z,101130.31
2023-07-11T06:24:11.522Z,101136.47
2023-07-11T06:26:40.000Z,101132.22
2023-07-11T06:29:08.305Z,101132.34
2023-07-11T06:31:36.796Z,101136.44
2023-07-11T06:34:06.570Z,101137.47
2023-07-11T06:36:34.917Z,101132.16
2023-07-11T06:39:03.265Z,101138.25
2023-07-11T06:41:31.703Z,101132.22
2023-07-11T06:43:59.992Z,101130.72
2023-07-11T06:46:28.455Z,101115.13
2023-07-11T06:48:59.256Z,101145.63
2023-07-11T06:51:29.847Z,101136.22
2023-07-11T06:53:58.565Z,101132.84
2023-07-11T06:56:27.791Z,101137.78
2023-07-11T06:58:56.397Z,101143.47
2023-07-11T07:01:35.535Z,101138.53
2023-07-11T07:04:06.995Z,101139.94
2023-07-11T07:06:37.257Z,101148.66
2023-07-11T07:09:06.308Z,101137.22
2023-07-11T07:11:36.621Z,101130.75
2023-07-11T07:14:07.757Z,101132.88
2023-07-11T07:16:37.179Z,101132.22
2023-07-11T07:19:06.233Z,101135.59
2023-07-11T07:21:36.308Z,101135.13
2023-07-11T07:24:05.013Z,101124.16
2023-07-11T07:26:33.879Z,101142.75
2023-07-11T07:29:02.681Z,101146.19
2023-07-11T07:31:32.054Z,101145.41
2023-07-11T07:34:00.568Z,101144.13
2023-07-11T07:36:28.924Z,101132.41
2023-07-11T07:38:58.604Z,101142.28
2023-07-11T07:41:28.210Z,101138.63
2023-07-11T07:43:56.542Z,101143.06
2023-07-11T07:46:25.064Z,101131.09
2023-07-11T07:48:53.637Z,101135.84
2023-07-11T07:51:22.952Z,101130.63
2023-07-11T07:53:51.328Z,101124.59
2023-07-11T07:56:24.488Z,101130.94
2023-07-11T07:58:53.042Z,101130.94
2023-07-11T08:01:22.976Z,101145.91
2023-07-11T08:03:51.896Z,101134.78
2023-07-11T08:06:21.577Z,101120.22
2023-07-11T08:08:51.524Z,101131.97
2023-07-11T08:11:23.181Z,101128.84
2023-07-11T08:16:31.558Z,101126.31
2023-07-11T08:19:05.856Z,101113.44
2023-07-11T08:21:36.389Z,101115.41
2023-07-11T08:24:06.379Z,101110.59
2023-07-11T08:26:36.331Z,101124.97
2023-07-11T08:29:13.229Z,101134.03
2023-07-11T08:31:53.639Z,101127.88
2023-07-11T08:34:22.014Z,101119.31
2023-07-11T08:36:50.373Z,101122.44
2023-07-11T08:39:18.805Z,101125.63
2023-07-11T08:41:51.796Z,101120.94
2023-07-11T08:44:31.383Z,101124.47
2023-07-11T08:47:05.767Z,101124.84
2023-07-11T08:49:48.588Z,101133.88
2023-07-11T08:52:19.910Z,101127.72
2023-07-11T08:54:55.186Z,101118.91
2023-07-11T08:57:30.502Z,101136.22
2023-07-11T09:00:08.554Z,101136.00
2023-07-11T09:02:47.401Z,101133.38
2023-07-11T09:05:21.298Z,101133.06
2023-07-11T09:07:53.630Z,101129.47
2023-07-11T09:10:48.685Z,101140.47
2023-07-11T09:14:00.807Z,101123.59
2023-07-11T09:16:42.932Z,101125.00
2023-07-11T09:19:28.399Z,101097.19
2023-07-11T09:22:09.346Z,101118.59
2023-07-11T09:24:47.564Z,101115.22
2023-07-11T09:27:23.677Z,101119.25
2023-07-11T09:29:54.831Z,101118.19
2023-07-11T09:32:32.414Z,101120.22
2023-07-11T09:35:17.548Z,101115.03
2023-07-11T09:37:52.283Z,101110.78
2023-07-11T09:40:32.196Z,101111.44
2023-07-11T09:43:02.110Z,101111.75
2023-07-11T09:45:35.175Z,101111.94
2023-07-11T09:48:13.041Z,101113.22
2023-07-11T09:51:10.761Z,101112.00
2023-07-11T09:53:44.424Z,101116.00
2023-07-11T09:56:15.444Z,101052.72
2023-07-11T09:58:49.605Z,101081.94
2023-07-11T10:01:25.733Z,101102.69
2023-07-11T10:03:58.861Z,101100.03
2023-07-11T10:09:18.964Z,101112.44
2023-07-11T10:11:58.140Z,101111.44
2023-07-11T10:14:32.575Z,101100.25
2023-07-11T10:17:14.038Z,101102.44
2023-07-11T10:19:42.488Z,101097.41
2023-07-11T10:22:19.429Z,101092.84
2023-07-11T10:24:48.361Z,101093.50
2023-07-11T10:27:32.252Z,101108.63
2023-07-11T10:30:02.473Z,101099.72
2023-07-11T10:32:40.149Z,101103.94
2023-07-11T10:35:15.706Z,101097.03
2023-07-11T10:37:47.033Z,101101.44
2023-07-11T10:40:23.450Z,101092.78
2023-07-11T10:43:04.338Z,101090.13
2023-07-11T10:45:38.996Z,101098.66
2023-07-11T10:48:25.789Z,101091.47
2023-07-11T10:50:59.424Z,101095.19
2023-07-11T10:53:33.734Z,101091.38
2023-07-11T10:56:07.323Z,101085.81
2023-07-11T10:58:36.502Z,101079.09
2023-07-11T11:01:16.031Z,101083.22
2023-07-11T11:03:48.599Z,101085.50
2023-07-11T11:06:41.586Z,101093.84
2023-07-11T11:09:17.319Z,101089.66
2023-07-11T11:11:57.908Z,101083.75
2023-07-11T11:14:34.413Z,101085.25
2023-07-11T11:17:18.744Z,101078.09
2023-07-11T11:20:08.730Z,101070.31
2023-07-11T11:22:47.964Z,101073.72
2023-07-11T11:25:27.795Z,101070.53
2023-07-11T11:28:12.669Z,101077.13
2023-07-11T11:30:53.058Z,101074.66
2023-07-11T11:33:33.838Z,101072.94
2023-07-11T11:36:10.468Z,101070.59
2023-07-11T11:38:58.933Z,101069.00
2023-07-11T11:41:37.834Z,101072.72
2023-07-11T11:49:41.393Z,101062.66
2023-07-11T11:52:13.358Z,101067.25
2023-07-11T11:54:45.253Z,101057.56
2023-07-11T11:57:22.649Z,101055.09
2023-07-11T11:59:52.016Z,101048.84
2023-07-11T12:02:31.777Z,101058.31
2023-07-11T12:05:03.793Z,101059.41
2023-07-11T12:07:43.155Z,101052.84
2023-07-11T12:10:25.815Z,101052.31
2023-07-11T12:13:21.433Z,101049.38
2023-07-11T12:15:55.926Z,101048.75
2023-07-11T12:18:43.349Z,101049.09
2023-07-11T12:21:43.153Z,101053.19
2023-07-11T12:24:47.611Z,101054.69
2023-07-11T12:28:02.331Z,101045.16
2023-07-11T12:30:44.650Z,101047.88
2023-07-11T12:33:35.546Z,101059.88
2023-07-11T12:36:41.102Z,101049.72
2023-07-11T12:39:24.276Z,101048.84
2023-07-11T12:42:09.324Z,101046.13
2023-07-11T12:44:40.326Z,101048.84
2023-07-11T12:47:18.198Z,101036.63
2023-07-11T12:49:49.457Z,101031.97
2023-07-11T12:52:20.693Z,101032.50
2023-07-11T12:54:50.841Z,101010.84
2023-07-11T12:57:24.429Z,101031.88
2023-07-11T12:59:53.058Z,101019.59
2023-07-11T13:02:27.245Z,101023.91
2023-07-11T13:05:00.320Z,101022.81
2023-07-11T13:07:33.617Z,101020.72
2023-07-11T13:10:04.749Z,101019.97
2023-07-11T13:12:38.785Z,101026.25
2023-07-11T13:15:15.139Z,101012.56
2023-07-11T13:17:45.001Z,101018.50
2023-07-11T13:20:21.813Z,101019.03
2023-07-11T13:22:50.804Z,101021.88
2023-07-11T13:25:28.185Z,101012.47
2023-07-11T13:27:58.021Z,101025.09
2023-07-11T13:30:35.874Z,101017.66
2023-07-11T13:35:53.686Z,101016.19
2023-07-11T13:38:22.201Z,101018.69
2023-07-11T13:40:56.538Z,101019.47
2023-07-11T13:43:26.629Z,101023.34
2023-07-11T13:45:55.297Z,101011.78
2023-07-11T13:48:29.539Z,101012.19
2023-07-11T13:51:20.616Z,101004.97
2023-07-11T13:53:52.514Z,101002.03
2023-07-11T13:56:21.006Z,100993.91
2023-07-11T13:58:53.522Z,101011.13
2023-07-11T14:01:26.774Z,100907.09
2023-07-11T14:03:56.871Z,101000.84
2023-07-11T14:06:25.463Z,101011.63
2023-07-11T14:08:53.781Z,101011.63
2023-07-11T14:11:28.159Z,101011.88
2023-07-11T14:13:58.958Z,101001.19
2023-07-11T14:16:27.669Z,100995.03
2023-07-11T14:18:56.794Z,101001.50
2023-07-11T14:21:25.205Z,101002.72
2023-07-11T14:23:53.564Z,101009.78
2023-07-11T14:26:21.950Z,100994.34
2023-07-11T14:28:50.760Z,100996.69
2023-07-11T14:31:23.233Z,100994.09
2023-07-11T14:33:51.634Z,100989.72
2023-07-11T14:36:20.092Z,100994.88
2023-07-11T14:38:48.414Z,100987.31
2023-07-11T14:41:16.811Z,100997.56
2023-07-11T14:43:45.140Z,100993.63
2023-07-11T14:46:13.841Z,100965.66
2023-07-11T14:48:43.728Z,100976.16
2023-07-11T14:51:13.068Z,100984.59
2023-07-11T14:53:43.354Z,100954.41
2023-07-11T14:58:51.446Z,100966.06
2023-07-11T15:01:19.887Z,100962.41
2023-07-11T15:16:30.188Z,100946.31
2023-07-11T15:19:00.000Z,100956.41
2023-07-11T15:21:28.315Z,100953.56
2023-07-11T15:23:56.682Z,100957.13
2023-07-11T15:26:25.973Z,100950.09
2023-07-11T15:28:55.111Z,100946.63
2023-07-11T15:31:23.789Z,100953.78
2023-07-11T15:33:52.498Z,100950.31
2023-07-11T15:36:22.216Z,100949.22
2023-07-11T15:38:50.816Z,100948.66
2023-07-11T15:41:20.095Z,100947.94
2023-07-11T15:43:48.586Z,100944.84
2023-07-11T15:46:22.950Z,100933.41
2023-07-11T15:48:54.251Z,100919.41
2023-07-11T15:51:24.288Z,100928.34
2023-07-11T15:53:53.293Z,100928.34
2023-07-11T15:56:21.622Z,100932.88
2023-07-11T15:58:50.285Z,100927.31
2023-07-11T16:01:18.628Z,100928.94
2023-07-11T16:03:47.143Z,100920.63
2023-07-11T16:06:18.840Z,100921.38
2023-07-11T16:08:48.573Z,100913.84
2023-07-11T16:11:18.524Z,100918.63
2023-07-11T16:13:47.272Z,100916.13
2023-07-11T16:16:18.725Z,100916.78
2023-07-11T16:18:47.381Z,100897.00
2023-07-11T16:21:16.976Z,100902.50
2023-07-11T16:23:45.376Z,100902.50
2023-07-11T16:26:21.145Z,100899.66
2023-07-11T16:28:51.252Z,100905.03
2023-07-11T16:31:19.978Z,100898.53
2023-07-11T16:33:48.479Z,100889.31
2023-07-11T16:36:18.524Z,100885.72
2023-07-11T16:38:46.970Z,100893.66
2023-07-11T16:41:15.331Z,100882.47
2023-07-11T16:43:45.091Z,100877.56
2023-07-11T16:46:19.457Z,100868.13
2023-07-11T16:48:47.921Z,100873.03
2023-07-11T16:51:23.757Z,100889.25
2023-07-11T16:53:52.161Z,100874.13
2023-07-11T16:56:20.555Z,100869.03
2023-07-11T16:58:50.275Z,100874.13
2023-07-11T17:01:21.837Z,100874.88
2023-07-11T17:03:50.554Z,100881.06
2023-07-11T17:06:27.165Z,100860.13
2023-07-11T17:08:56.938Z,100858.28
2023-07-11T17:11:25.904Z,100874.34
2023-07-11T17:13:56.124Z,100873.59
2023-07-11T17:16:28.099Z,100874.06
2023-07-11T17:19:02.395Z,100873.41
2023-07-11T17:21:30.757Z,100878.94
2023-07-11T17:23:59.444Z,100866.56
2023-07-11T17:26:27.756Z,100862.44
2023-07-11T17:28:57.427Z,100862.88
2023-07-11T17:31:25.884Z,100869.97
2023-07-11T17:33:54.373Z,100869.97
2023-07-11T17:36:22.723Z,100861.16
2023-07-11T17:38:51.139Z,100868.00
2023-07-11T17:44:03.079Z,100852.78
2023-07-11T17:49:07.267Z,100801.81
2023-07-11T17:51:36.220Z,100865.34
2023-07-11T17:54:04.859Z,100853.09
2023-07-11T17:56:52.246Z,100858.84
2023-07-11T17:59:21.523Z,100845.16
2023-07-11T18:01:51.326Z,100842.00
2023-07-11T18:04:19.911Z,100839.94
2023-07-11T18:06:48.440Z,100825.84
2023-07-11T18:09:16.901Z,100835.94
2023-07-11T18:11:45.427Z,100845.47
2023-07-11T18:14:13.760Z,100824.84
2023-07-11T18:16:42.325Z,100793.34
2023-07-11T18:19:12.973Z,100830.97
2023-07-11T18:21:41.094Z,100818.78
2023-07-11T18:24:09.482Z,100813.16
2023-07-11T18:26:37.824Z,100817.28
2023-07-11T18:29:06.155Z,100814.75
2023-07-11T18:31:34.613Z,100830.41
2023-07-11T18:34:02.992Z,100809.03
2023-07-11T18:36:34.429Z,100779.03
2023-07-11T18:39:03.226Z,100804.69
2023-07-11T18:41:31.622Z,100784.94
2023-07-11T18:44:00.025Z,100807.91
2023-07-11T18:46:28.402Z,100800.06
2023-07-11T18:48:56.709Z,100794.66
2023-07-11T18:51:29.047Z,100809.69
2023-07-11T18:53:58.724Z,100795.72
2023-07-11T18:56:28.748Z,100781.28
2023-07-11T18:58:57.132Z,100783.78
2023-07-11T19:01:25.626Z,100789.53
2023-07-11T19:03:53.978Z,100797.19
2023-07-11T19:06:22.299Z,100797.81
2023-07-11T19:08:50.582Z,100795.41
2023-07-11T19:11:20.268Z,100801.16
2023-07-11T19:13:48.602Z,100791.50
2023-07-11T19:16:22.674Z,100789.31
2023-07-11T19:18:51.512Z,100779.66
2023-07-11T19:21:20.005Z,100785.84
2023-07-11T19:23:48.351Z,100776.94
2023-07-11T19:26:20.076Z,100649.69
2023-07-11T19:28:48.510Z,100755.84
2023-07-11T19:31:17.921Z,100757.59
2023-07-11T19:33:46.426Z,100757.13
2023-07-11T19:36:21.989Z,100761.25
2023-07-11T19:38:50.362Z,100735.22
2023-07-11T19:41:20.606Z,100749.22
2023-07-11T19:43:49.551Z,100751.28
2023-07-11T19:46:22.294Z,100752.22
2023-07-11T19:48:51.802Z,100756.97
2023-07-11T19:51:20.175Z,100756.00
2023-07-11T19:53:48.496Z,100751.66
2023-07-11T19:56:23.806Z,100778.47
2023-07-11T19:58:53.001Z,100742.53
2023-07-11T20:01:21.526Z,100745.53
2023-07-11T20:03:52.324Z,100747.44
2023-07-11T20:06:24.113Z,100743.97
2023-07-11T20:08:54.090Z,100747.44
2023-07-11T20:11:23.871Z,100741.28
2023-07-11T20:13:52.172Z,100749.59
2023-07-11T20:16:23.061Z,100625.38
2023-07-11T20:18:52.164Z,100760.44
2023-07-11T20:21:24.171Z,100757.13
2023-07-11T20:23:53.708Z,100781.38
2023-07-11T20:26:26.627Z,100772.59
2023-07-11T20:28:57.947Z,100769.25
2023-07-11T20:31:26.961Z,100779.41
2023-07-11T20:33:55.414Z,100783.22
2023-07-11T20:36:26.931Z,100778.22
2023-07-11T20:38:59.224Z,100747.41
2023-07-11T20:41:28.993Z,100765.47
2023-07-11T20:44:00.558Z,100763.25
2023-07-11T20:46:29.520Z,100758.13
2023-07-11T20:49:00.858Z,100744.00
2023-07-11T20:51:29.764Z,100736.59
2023-07-11T20:53:58.148Z,100739.78
2023-07-11T20:56:28.212Z,100742.19
2023-07-11T20:58:56.558Z,100739.84
2023-07-11T21:01:25.982Z,100752.44
2023-07-11T21:03:54.472Z,100755.31
2023-07-11T21:06:35.134Z,100743.91
2023-07-11T21:09:05.778Z,100748.75
2023-07-11T21:11:35.505Z,100743.69
2023-07-11T21:14:03.967Z,100743.75
2023-07-11T21:16:35.279Z,100747.03
2023-07-11T21:19:05.386Z,100760.91
2023-07-11T21:21:35.641Z,100758.41
2023-07-11T21:24:03.972Z,100745.44
2023-07-11T21:26:33.055Z,100757.44
2023-07-11T21:29:04.594Z,100751.00
2023-07-11T21:31:33.563Z,100748.38
2023-07-11T21:34:02.422Z,100755.38
2023-07-11T21:36:31.441Z,100752.31
2023-07-11T21:39:00.810Z,100756.25
2023-07-11T21:41:29.164Z,100756.16
2023-07-11T21:43:57.516Z,100762.00
2023-07-11T21:46:31.019Z,100757.28
2023-07-11T21:49:00.197Z,100752.94
2023-07-11T21:51:32.048Z,100754.16
2023-07-11T21:54:00.972Z,100758.97
2023-07-11T21:56:30.715Z,100762.13
2023-07-11T21:59:02.306Z,100763.06
2023-07-11T22:01:32.733Z,100754.19
2023-07-11T22:04:02.197Z,100756.03
2023-07-11T22:06:32.003Z,100762.38
2023-07-11T22:09:00.543Z,100760.63
2023-07-11T22:11:29.047Z,100772.03
2023-07-11T22:13:57.725Z,100763.84
2023-07-11T22:16:28.358Z,100766.47
2023-07-11T22:18:58.352Z,100761.22
2023-07-11T22:21:28.266Z,100764.03
2023-07-11T22:23:58.444Z,100738.19
2023-07-11T22:26:32.068Z,100621.16
2023-07-11T22:29:02.674Z,100747.06
2023-07-11T22:31:31.784Z,100732.59
2023-07-11T22:34:01.660Z,100734.50
2023-07-11T22:36:30.097Z,100730.69
2023-07-11T22:38:58.453Z,100730.78
2023-07-11T22:41:26.867Z,100740.69
2023-07-11T22:43:55.298Z,100731.81
2023-07-11T22:46:23.851Z,100745.28
2023-07-11T22:48:53.712Z,100742.34
2023-07-11T22:51:23.481Z,100734.16
2023-07-11T22:53:51.785Z,100737.63
2023-07-11T22:56:22.105Z,100734.94
2023-07-11T22:58:51.484Z,100738.63
2023-07-11T23:01:22.314Z,100742.09
2023-07-11T23:03:51.205Z,100749.31
2023-07-11T23:06:24.991Z,100755.75
2023-07-11T23:08:54.385Z,100740.63
2023-07-11T23:11:24.943Z,100723.66
2023-07-11T23:13:53.205Z,100775.16
2023-07-11T23:16:28.855Z,100769.94
2023-07-11T23:18:58.194Z,100787.09
2023-07-11T23:21:28.672Z,100790.66
2023-07-11T23:23:57.075Z,100779.78
2023-07-11T23:26:26.769Z,100784.56
2023-07-11T23:28:56.197Z,100793.06
2023-07-11T23:31:25.658Z,100791.16
2023-07-11T23:33:54.237Z,100787.00
2023-07-11T23:36:27.471Z,100799.19
2023-07-11T23:38:57.023Z,100791.88
2023-07-11T23:41:26.211Z,100795.63
2023-07-11T23:43:54.607Z,100792.03
2023-07-11T23:46:27.260Z,100783.78
2023-07-11T23:48:55.908Z,100783.78
2023-07-11T23:51:28.778Z,100783.34
2023-07-11T23:53:57.425Z,100781.44
2023-07-11T23:56:28.298Z,100782.13
2023-07-11T23:58:59.801Z,100802.28
